sensor_id;sensor_type;location;lat;lon;timestamp;pressure;altitude;pressure_sealevel;temperature;humidity
10145;BME280;5113;41.822;23.564;2023-05-11T00:00:40;-11213.91;;;10.11;100.00
10145;BME280;5113;41.822;23.564;2023-05-11T00:03:48;-11217.00;;;10.22;100.00
10145;BME280;5113;41.822;23.564;2023-05-11T00:06:54;-11214.75;;;10.14;100.00
10145;BME280;5113;41.822;23.564;2023-05-11T00:10:01;-11201.13;;;9.65;100.00
10145;BME280;5113;41.822;23.564;2023-05-11T00:13:08;-11192.97;;;9.35;100.00
10145;BME280;5113;41.822;23.564;2023-05-11T00:16:14;-11201.81;;;9.67;100.00
10145;BME280;5113;41.822;23.564;2023-05-11T00:19:20;-11207.16;;;9.86;100.00
10145;BME280;5113;41.822;23.564;2023-05-11T00:22:27;-11211.81;;;10.03;100.00
10145;BME280;5113;41.822;23.564;2023-05-11T00:25:33;-11216.59;;;10.20;100.00
10145;BME280;5113;41.822;23.564;2023-05-11T00:28:40;-11212.50;;;10.06;100.00
10145;BME280;5113;41.822;23.564;2023-05-11T00:31:46;-11213.06;;;10.08;100.00
10145;BME280;5113;41.822;23.564;2023-05-11T00:34:53;-11215.19;;;10.15;100.00
10145;BME280;5113;41.822;23.564;2023-05-11T00:37:59;-11213.78;;;10.10;100.00
10145;BME280;5113;41.822;23.564;2023-05-11T00:41:06;-11200.00;;;9.60;100.00
10145;BME280;5113;41.822;23.564;2023-05-11T00:44:13;-11200.56;;;9.63;100.00
10145;BME280;5113;41.822;23.564;2023-05-11T00:47:20;-11203.38;;;9.73;100.00
10145;BME280;5113;41.822;23.564;2023-05-11T00:50:26;-11208.84;;;9.92;100.00
10145;BME280;5113;41.822;23.564;2023-05-11T00:53:32;-11210.25;;;9.98;100.00
10145;BME280;5113;41.822;23.564;2023-05-11T00:56:39;-11199.16;;;9.57;100.00
10145;BME280;5113;41.822;23.564;2023-05-11T00:59:47;-11192.53;;;9.34;100.00
10145;BME280;5113;41.822;23.564;2023-05-11T01:02:56;-11202.38;;;9.69;100.00
10145;BME280;5113;41.822;23.564;2023-05-11T01:06:08;-11202.25;;;9.69;100.00
10145;BME280;5113;41.822;23.564;2023-05-11T01:09:27;-11210.25;;;9.98;100.00
10145;BME280;5113;41.822;23.564;2023-05-11T01:12:45;-11208.00;;;9.89;100.00
10145;BME280;5113;41.822;23.564;2023-05-11T01:15:54;-11201.25;;;9.65;100.00
10145;BME280;5113;41.822;23.564;2023-05-11T01:19:04;-11203.78;;;9.74;100.00
10145;BME280;5113;41.822;23.564;2023-05-11T01:22:27;-11195.63;;;9.45;100.00
10145;BME280;5113;41.822;23.564;2023-05-11T01:25:55;-11209.69;;;9.96;100.00
10145;BME280;5113;41.822;23.564;2023-05-11T01:29:21;-11208.84;;;9.92;100.00
10145;BME280;5113;41.822;23.564;2023-05-11T01:32:35;-11194.78;;;9.42;100.00
10145;BME280;5113;41.822;23.564;2023-05-11T01:35:50;-11197.47;;;9.51;100.00
10145;BME280;5113;41.822;23.564;2023-05-11T01:39:01;-11199.72;;;9.59;100.00
10145;BME280;5113;41.822;23.564;2023-05-11T01:42:08;-11196.47;;;9.48;100.00
10145;BME280;5113;41.822;23.564;2023-05-11T01:45:16;-11205.47;;;9.80;100.00
10145;BME280;5113;41.822;23.564;2023-05-11T01:48:27;-11201.25;;;9.65;100.00
10145;BME280;5113;41.822;23.564;2023-05-11T01:51:36;-11203.09;;;9.72;100.00
10145;BME280;5113;41.822;23.564;2023-05-11T01:54:43;-11188.75;;;9.20;100.00
10145;BME280;5113;41.822;23.564;2023-05-11T01:57:53;-11196.06;;;9.46;100.00
10145;BME280;5113;41.822;23.564;2023-05-11T02:01:01;-11185.78;;;9.09;100.00
10145;BME280;5113;41.822;23.564;2023-05-11T02:04:10;-11192.97;;;9.35;100.00
10145;BME280;5113;41.822;23.564;2023-05-11T02:07:18;-11205.19;;;9.79;100.00
10145;BME280;5113;41.822;23.564;2023-05-11T02:10:26;-11193.25;;;9.36;100.00
10145;BME280;5113;41.822;23.564;2023-05-11T02:13:33;-11195.06;;;9.43;100.00
10145;BME280;5113;41.822;23.564;2023-05-11T02:16:42;-11198.16;;;9.54;100.00
10145;BME280;5113;41.822;23.564;2023-05-11T02:19:51;-11187.47;;;9.15;100.00
10145;BME280;5113;41.822;23.564;2023-05-11T02:22:59;-11197.88;;;9.53;100.00
10145;BME280;5113;41.822;23.564;2023-05-11T02:26:06;-11197.03;;;9.50;100.00
10145;BME280;5113;41.822;23.564;2023-05-11T02:29:13;-11204.34;;;9.76;100.00
10145;BME280;5113;41.822;23.564;2023-05-11T02:32:20;-11210.53;;;9.99;100.00
10145;BME280;5113;41.822;23.564;2023-05-11T02:35:32;-11211.94;;;10.04;100.00
10145;BME280;5113;41.822;23.564;2023-05-11T02:38:41;-11201.53;;;9.66;100.00
10145;BME280;5113;41.822;23.564;2023-05-11T02:41:54;-11211.94;;;10.04;100.00
10145;BME280;5113;41.822;23.564;2023-05-11T02:45:04;-11219.25;;;10.30;100.00
10145;BME280;5113;41.822;23.564;2023-05-11T02:48:22;-11220.09;;;10.33;100.00
10145;BME280;5113;41.822;23.564;2023-05-11T02:51:34;-11202.94;;;9.71;100.00
10145;BME280;5113;41.822;23.564;2023-05-11T02:54:41;-11204.91;;;9.78;100.00
10145;BME280;5113;41.822;23.564;2023-05-11T02:57:48;-11214.75;;;10.14;100.00
10145;BME280;5113;41.822;23.564;2023-05-11T03:00:55;-11212.66;;;10.06;100.00
10145;BME280;5113;41.822;23.564;2023-05-11T03:04:03;-11215.59;;;10.17;100.00
10145;BME280;5113;41.822;23.564;2023-05-11T03:07:10;-11200.28;;;9.62;100.00
10145;BME280;5113;41.822;23.564;2023-05-11T03:10:17;-11204.34;;;9.76;100.00
10145;BME280;5113;41.822;23.564;2023-05-11T03:13:24;-11202.81;;;9.71;100.00
10145;BME280;5113;41.822;23.564;2023-05-11T03:16:31;-11186.63;;;9.12;100.00
10145;BME280;5113;41.822;23.564;2023-05-11T03:19:39;-11199.00;;;9.57;100.00
10145;BME280;5113;41.822;23.564;2023-05-11T03:22:48;-11203.22;;;9.72;100.00
10145;BME280;5113;41.822;23.564;2023-05-11T03:25:55;-11211.09;;;10.01;100.00
10145;BME280;5113;41.822;23.564;2023-05-11T03:29:03;-11210.13;;;9.97;100.00
10145;BME280;5113;41.822;23.564;2023-05-11T03:32:09;-11210.41;;;9.98;100.00
10145;BME280;5113;41.822;23.564;2023-05-11T03:35:16;-11200.41;;;9.62;100.00
10145;BME280;5113;41.822;23.564;2023-05-11T03:38:27;-11190.56;;;9.26;100.00
10145;BME280;5113;41.822;23.564;2023-05-11T03:41:35;-11202.66;;;9.70;100.00
10145;BME280;5113;41.822;23.564;2023-05-11T03:44:45;-11206.03;;;9.82;100.00
10145;BME280;5113;41.822;23.564;2023-05-11T03:47:54;-11208.00;;;9.89;100.00
10145;BME280;5113;41.822;23.564;2023-05-11T03:51:02;-11198.16;;;9.54;100.00
10145;BME280;5113;41.822;23.564;2023-05-11T03:54:11;-11203.78;;;9.74;100.00
10145;BME280;5113;41.822;23.564;2023-05-11T03:57:17;-11214.63;;;10.13;100.00
10145;BME280;5113;41.822;23.564;2023-05-11T04:00:23;-11211.38;;;10.02;100.00
10145;BME280;5113;41.822;23.564;2023-05-11T04:03:29;-11209.69;;;9.96;100.00
10145;BME280;5113;41.822;23.564;2023-05-11T04:06:35;-11213.06;;;10.08;100.00
10145;BME280;5113;41.822;23.564;2023-05-11T04:09:42;-11208.56;;;9.91;100.00
10145;BME280;5113;41.822;23.564;2023-05-11T04:12:49;-11200.69;;;9.63;100.00
10145;BME280;5113;41.822;23.564;2023-05-11T04:15:56;-11207.31;;;9.87;100.00
10145;BME280;5113;41.822;23.564;2023-05-11T04:19:03;-11208.00;;;9.89;100.00
10145;BME280;5113;41.822;23.564;2023-05-11T04:22:10;-11207.44;;;9.87;100.00
10145;BME280;5113;41.822;23.564;2023-05-11T04:25:18;-11217.44;;;10.23;100.00
10145;BME280;5113;41.822;23.564;2023-05-11T04:28:24;-11215.19;;;10.15;100.00
10145;BME280;5113;41.822;23.564;2023-05-11T04:31:32;-11210.13;;;9.97;100.00
10145;BME280;5113;41.822;23.564;2023-05-11T04:34:40;-11202.81;;;9.71;100.00
10145;BME280;5113;41.822;23.564;2023-05-11T04:37:46;-11204.34;;;9.76;100.00
10145;BME280;5113;41.822;23.564;2023-05-11T04:40:53;-11214.34;;;10.12;100.00
10145;BME280;5113;41.822;23.564;2023-05-11T04:43:59;-11209.13;;;9.93;100.00
10145;BME280;5113;41.822;23.564;2023-05-11T04:47:05;-11219.69;;;10.32;100.00
10145;BME280;5113;41.822;23.564;2023-05-11T04:50:12;-11221.94;;;10.40;100.00
10145;BME280;5113;41.822;23.564;2023-05-11T04:53:18;-11222.34;;;10.41;100.00
10145;BME280;5113;41.822;23.564;2023-05-11T04:56:25;-11226.84;;;10.57;100.00
10145;BME280;5113;41.822;23.564;2023-05-11T04:59:31;-11225.31;;;10.52;100.00
10145;BME280;5113;41.822;23.564;2023-05-11T05:02:38;-11223.47;;;10.45;100.00
10145;BME280;5113;41.822;23.564;2023-05-11T05:05:44;-11223.47;;;10.45;100.00
10145;BME280;5113;41.822;23.564;2023-05-11T05:08:50;-11226.44;;;10.56;100.00
10145;BME280;5113;41.822;23.564;2023-05-11T05:11:58;-11228.69;;;10.64;100.00
10145;BME280;5113;41.822;23.564;2023-05-11T05:15:06;-11231.34;;;10.74;100.00
10145;BME280;5113;41.822;23.564;2023-05-11T05:18:12;-11240.91;;;11.08;100.00
10145;BME280;5113;41.822;23.564;2023-05-11T05:21:18;-11230.22;;;10.70;100.00
10145;BME280;5113;41.822;23.564;2023-05-11T05:24:24;-11243.59;;;11.18;100.00
10145;BME280;5113;41.822;23.564;2023-05-11T05:27:32;-11237.69;;;10.97;100.00
10145;BME280;5113;41.822;23.564;2023-05-11T05:30:39;-11237.69;;;10.97;100.00
10145;BME280;5113;41.822;23.564;2023-05-11T05:33:44;-11240.06;;;11.05;100.00
10145;BME280;5113;41.822;23.564;2023-05-11T05:36:51;-11245.28;;;11.24;100.00
10145;BME280;5113;41.822;23.564;2023-05-11T05:39:57;-11240.63;;;11.07;100.00
10145;BME280;5113;41.822;23.564;2023-05-11T05:43:05;-11243.31;;;11.17;100.00
10145;BME280;5113;41.822;23.564;2023-05-11T05:46:11;-11244.31;;;11.20;100.00
10145;BME280;5113;41.822;23.564;2023-05-11T05:49:17;-11237.84;;;10.97;100.00
10145;BME280;5113;41.822;23.564;2023-05-11T05:52:23;-11242.31;;;11.13;100.00
10145;BME280;5113;41.822;23.564;2023-05-11T05:55:29;-11243.75;;;11.18;100.00
10145;BME280;5113;41.822;23.564;2023-05-11T05:58:37;-11242.59;;;11.14;100.00
10145;BME280;5113;41.822;23.564;2023-05-11T06:01:43;-11237.97;;;10.98;100.00
10145;BME280;5113;41.822;23.564;2023-05-11T06:04:51;-11230.78;;;10.72;100.00
10145;BME280;5113;41.822;23.564;2023-05-11T06:07:57;-11238.09;;;10.98;100.00
10145;BME280;5113;41.822;23.564;2023-05-11T06:11:14;-11230.50;;;10.71;100.00
10145;BME280;5113;41.822;23.564;2023-05-11T06:14:22;-11244.03;;;11.19;100.00
10145;BME280;5113;41.822;23.564;2023-05-11T06:17:29;-11246.00;;;11.27;100.00
10145;BME280;5113;41.822;23.564;2023-05-11T06:20:35;-11250.91;;;11.44;100.00
10145;BME280;5113;41.822;23.564;2023-05-11T06:23:41;-11247.97;;;11.34;100.00
10145;BME280;5113;41.822;23.564;2023-05-11T06:26:47;-11237.28;;;10.95;100.00
10145;BME280;5113;41.822;23.564;2023-05-11T06:29:55;-11251.63;;;11.47;100.00
10145;BME280;5113;41.822;23.564;2023-05-11T06:33:01;-11254.00;;;11.55;100.00
10145;BME280;5113;41.822;23.564;2023-05-11T06:36:07;-11253.03;;;11.52;100.00
10145;BME280;5113;41.822;23.564;2023-05-11T06:39:13;-11252.75;;;11.51;100.00
10145;BME280;5113;41.822;23.564;2023-05-11T06:42:19;-11244.03;;;11.19;100.00
10145;BME280;5113;41.822;23.564;2023-05-11T06:45:28;-11256.97;;;11.66;100.00
10145;BME280;5113;41.822;23.564;2023-05-11T06:48:34;-11248.53;;;11.36;100.00
10145;BME280;5113;41.822;23.564;2023-05-11T06:51:40;-11256.13;;;11.63;100.00
10145;BME280;5113;41.822;23.564;2023-05-11T06:54:46;-11250.78;;;11.44;100.00
10145;BME280;5113;41.822;23.564;2023-05-11T06:57:53;-11256.41;;;11.64;100.00
10145;BME280;5113;41.822;23.564;2023-05-11T07:01:01;-11258.38;;;11.71;100.00
10145;BME280;5113;41.822;23.564;2023-05-11T07:04:09;-11261.47;;;11.82;100.00
10145;BME280;5113;41.822;23.564;2023-05-11T07:07:15;-11263.16;;;11.88;100.00
10145;BME280;5113;41.822;23.564;2023-05-11T07:10:21;-11255.13;;;11.59;100.00
10145;BME280;5113;41.822;23.564;2023-05-11T07:13:28;-11267.09;;;12.03;100.00
10145;BME280;5113;41.822;23.564;2023-05-11T07:16:36;-11272.44;;;12.22;100.00
10145;BME280;5113;41.822;23.564;2023-05-11T07:19:42;-11271.59;;;12.19;100.00
10145;BME280;5113;41.822;23.564;2023-05-11T07:22:49;-11260.06;;;11.77;100.00
10145;BME280;5113;41.822;23.564;2023-05-11T07:25:55;-11271.47;;;12.18;100.00
10145;BME280;5113;41.822;23.564;2023-05-11T07:29:01;-11279.19;;;12.46;100.00
10145;BME280;5113;41.822;23.564;2023-05-11T07:32:09;-11276.66;;;12.37;100.00
10145;BME280;5113;41.822;23.564;2023-05-11T07:35:15;-11303.69;;;13.35;100.00
10145;BME280;5113;41.822;23.564;2023-05-11T07:38:21;-11298.06;;;13.14;100.00
10145;BME280;5113;41.822;23.564;2023-05-11T07:41:27;-11304.81;;;13.39;100.00
10145;BME280;5113;41.822;23.564;2023-05-11T07:44:34;-11290.59;;;12.87;100.00
10145;BME280;5113;41.822;23.564;2023-05-11T07:47:41;-11281.72;;;12.55;100.00
10145;BME280;5113;41.822;23.564;2023-05-11T07:50:48;-11272.44;;;12.22;100.00
10145;BME280;5113;41.822;23.564;2023-05-11T07:53:55;-11287.22;;;12.75;100.00
10145;BME280;5113;41.822;23.564;2023-05-11T07:57:01;-11280.19;;;12.50;100.00
10145;BME280;5113;41.822;23.564;2023-05-11T08:00:09;-11285.41;;;12.69;100.00
10145;BME280;5113;41.822;23.564;2023-05-11T08:03:17;-11290.19;;;12.86;100.00
10145;BME280;5113;41.822;23.564;2023-05-11T08:06:24;-11303.28;;;13.33;100.00
10145;BME280;5113;41.822;23.564;2023-05-11T08:09:30;-11287.06;;;12.75;100.00
10145;BME280;5113;41.822;23.564;2023-05-11T08:12:37;-11277.09;;;12.39;100.00
10145;BME280;5113;41.822;23.564;2023-05-11T08:15:43;-11287.91;;;12.78;100.00
10145;BME280;5113;41.822;23.564;2023-05-11T08:18:50;-11274.69;;;12.30;100.00
10145;BME280;5113;41.822;23.564;2023-05-11T08:21:57;-11292.00;;;12.93;100.00
10145;BME280;5113;41.822;23.564;2023-05-11T08:25:03;-11260.06;;;11.77;100.00
10145;BME280;5113;41.822;23.564;2023-05-11T08:28:10;-11266.81;;;12.02;100.00
10145;BME280;5113;41.822;23.564;2023-05-11T08:31:16;-11266.81;;;12.02;100.00
10145;BME280;5113;41.822;23.564;2023-05-11T08:34:23;-11272.16;;;12.21;100.00
10145;BME280;5113;41.822;23.564;2023-05-11T08:37:30;-11282.28;;;12.57;100.00
10145;BME280;5113;41.822;23.564;2023-05-11T08:40:36;-11265.13;;;11.96;100.00
10145;BME280;5113;41.822;23.564;2023-05-11T08:43:44;-11272.44;;;12.22;100.00
10145;BME280;5113;41.822;23.564;2023-05-11T08:46:52;-11290.59;;;12.87;100.00
10145;BME280;5113;41.822;23.564;2023-05-11T08:50:20;-11282.56;;;12.59;100.00
10145;BME280;5113;41.822;23.564;2023-05-11T08:53:27;-11287.50;;;12.76;100.00
10145;BME280;5113;41.822;23.564;2023-05-11T08:56:33;-11283.00;;;12.60;100.00
10145;BME280;5113;41.822;23.564;2023-05-11T08:59:43;-11278.78;;;12.45;100.00
10145;BME280;5113;41.822;23.564;2023-05-11T09:02:50;-11256.41;;;11.64;100.00
10145;BME280;5113;41.822;23.564;2023-05-11T09:05:59;-11278.34;;;12.43;100.00
10145;BME280;5113;41.822;23.564;2023-05-11T09:09:06;-11266.53;;;12.01;100.00
10145;BME280;5113;41.822;23.564;2023-05-11T09:12:15;-11266.69;;;12.01;100.00
10145;BME280;5113;41.822;23.564;2023-05-11T09:15:21;-11270.63;;;12.15;100.00
10145;BME280;5113;41.822;23.564;2023-05-11T09:18:28;-11272.88;;;12.23;100.00
10145;BME280;5113;41.822;23.564;2023-05-11T09:21:37;-11289.34;;;12.83;100.00
10145;BME280;5113;41.822;23.564;2023-05-11T09:24:44;-11280.88;;;12.52;100.00
10145;BME280;5113;41.822;23.564;2023-05-11T09:27:50;-11272.44;;;12.22;100.00
10145;BME280;5113;41.822;23.564;2023-05-11T09:30:57;-11292.28;;;12.94;100.00
10145;BME280;5113;41.822;23.564;2023-05-11T09:34:09;-11307.06;;;13.47;100.00
10145;BME280;5113;41.822;23.564;2023-05-11T09:37:17;-11305.09;;;13.40;100.00
10145;BME280;5113;41.822;23.564;2023-05-11T09:40:24;-11304.81;;;13.39;100.00
10145;BME280;5113;41.822;23.564;2023-05-11T09:43:31;-11296.38;;;13.08;100.00
10145;BME280;5113;41.822;23.564;2023-05-11T09:46:37;-11319.47;;;13.92;100.00
10145;BME280;5113;41.822;23.564;2023-05-11T09:49:45;-11317.91;;;13.86;100.00
10145;BME280;5113;41.822;23.564;2023-05-11T09:52:53;-11319.75;;;13.93;100.00
10145;BME280;5113;41.822;23.564;2023-05-11T09:55:59;-11325.09;;;14.12;98.65
10145;BME280;5113;41.822;23.564;2023-05-11T09:59:06;-11317.78;;;13.85;98.95
10145;BME280;5113;41.822;23.564;2023-05-11T10:02:20;-11309.03;;;13.54;100.00
10145;BME280;5113;41.822;23.564;2023-05-11T10:05:29;-11282.28;;;12.57;100.00
10145;BME280;5113;41.822;23.564;2023-05-11T10:08:38;-11298.63;;;13.16;100.00
10145;BME280;5113;41.822;23.564;2023-05-11T10:11:45;-11344.53;;;14.82;94.44
10145;BME280;5113;41.822;23.564;2023-05-11T10:14:54;-11325.66;;;14.14;97.52
10145;BME280;5113;41.822;23.564;2023-05-11T10:18:00;-11336.66;;;14.53;97.33
10145;BME280;5113;41.822;23.564;2023-05-11T10:21:07;-11327.78;;;14.21;96.74
10145;BME280;5113;41.822;23.564;2023-05-11T10:24:16;-11320.31;;;13.95;97.88
10145;BME280;5113;41.822;23.564;2023-05-11T10:27:26;-11330.72;;;14.32;97.05
10145;BME280;5113;41.822;23.564;2023-05-11T10:30:32;-11336.94;;;14.54;96.17
10145;BME280;5113;41.822;23.564;2023-05-11T10:33:41;-11315.25;;;13.76;99.76
10145;BME280;5113;41.822;23.564;2023-05-11T10:36:50;-11342.97;;;14.76;96.22
10145;BME280;5113;41.822;23.564;2023-05-11T10:39:58;-11330.59;;;14.32;97.93
10145;BME280;5113;41.822;23.564;2023-05-11T10:43:36;-11333.84;;;14.43;95.55
10145;BME280;5113;41.822;23.564;2023-05-11T10:47:04;-11327.91;;;14.22;96.18
10145;BME280;5113;41.822;23.564;2023-05-11T10:50:29;-11338.91;;;14.62;94.93
10145;BME280;5113;41.822;23.564;2023-05-11T10:53:54;-11341.00;;;14.69;95.22
10145;BME280;5113;41.822;23.564;2023-05-11T10:57:12;-11340.44;;;14.67;95.44
10145;BME280;5113;41.822;23.564;2023-05-11T11:04:17;-11353.81;;;15.15;95.64
10145;BME280;5113;41.822;23.564;2023-05-11T11:07:24;-11367.06;;;15.63;92.55
10145;BME280;5113;41.822;23.564;2023-05-11T11:10:31;-11352.69;;;15.11;91.52
10145;BME280;5113;41.822;23.564;2023-05-11T11:13:57;-11365.38;;;15.57;86.85
10145;BME280;5113;41.822;23.564;2023-05-11T11:17:21;-11378.63;;;16.05;84.95
10145;BME280;5113;41.822;23.564;2023-05-11T11:20:48;-11368.47;;;15.68;84.44
10145;BME280;5113;41.822;23.564;2023-05-11T11:23:54;-11344.97;;;14.83;89.30
10145;BME280;5113;41.822;23.564;2023-05-11T11:27:00;-11352.56;;;15.11;90.65
10145;BME280;5113;41.822;23.564;2023-05-11T11:30:16;-11358.47;;;15.32;90.30
10145;BME280;5113;41.822;23.564;2023-05-11T11:33:32;-11391.88;;;16.52;83.63
10145;BME280;5113;41.822;23.564;2023-05-11T11:37:03;-11336.66;;;14.53;93.16
10145;BME280;5113;41.822;23.564;2023-05-11T11:40:10;-11367.22;;;15.64;91.19
10145;BME280;5113;41.822;23.564;2023-05-11T11:43:21;-11386.38;;;16.33;81.53
10145;BME280;5113;41.822;23.564;2023-05-11T11:46:29;-11370.16;;;15.74;85.07
10145;BME280;5113;41.822;23.564;2023-05-11T11:49:36;-11361.00;;;15.41;87.22
10145;BME280;5113;41.822;23.564;2023-05-11T11:52:42;-11346.78;;;14.90;91.00
10145;BME280;5113;41.822;23.564;2023-05-11T11:55:50;-11339.87;;;14.65;89.73
10145;BME280;5113;41.822;23.564;2023-05-11T11:58:56;-11366.38;;;15.61;89.48
10145;BME280;5113;41.822;23.564;2023-05-11T12:02:04;-11382.72;;;16.19;82.28
10145;BME280;5113;41.822;23.564;2023-05-11T12:05:13;-11387.91;;;16.38;84.14
10145;BME280;5113;41.822;23.564;2023-05-11T12:08:23;-11381.72;;;16.16;84.32
10145;BME280;5113;41.822;23.564;2023-05-11T12:11:31;-11347.63;;;14.93;89.56
10145;BME280;5113;41.822;23.564;2023-05-11T12:14:38;-11371.56;;;15.79;85.60
10145;BME280;5113;41.822;23.564;2023-05-11T12:17:54;-11363.53;;;15.50;87.56
10145;BME280;5113;41.822;23.564;2023-05-11T12:21:01;-11378.06;;;16.03;85.76
10145;BME280;5113;41.822;23.564;2023-05-11T12:24:10;-11380.59;;;16.12;80.00
10145;BME280;5113;41.822;23.564;2023-05-11T12:27:16;-11350.44;;;15.03;87.87
10145;BME280;5113;41.822;23.564;2023-05-11T12:30:25;-11359.59;;;15.36;87.61
10145;BME280;5113;41.822;23.564;2023-05-11T12:33:33;-11376.66;;;15.98;82.57
10145;BME280;5113;41.822;23.564;2023-05-11T12:36:50;-11369.31;;;15.71;82.45
10145;BME280;5113;41.822;23.564;2023-05-11T12:39:57;-11371.72;;;15.80;81.91
10145;BME280;5113;41.822;23.564;2023-05-11T12:43:04;-11388.06;;;16.39;82.38
10145;BME280;5113;41.822;23.564;2023-05-11T12:46:10;-11352.13;;;15.09;85.90
10145;BME280;5113;41.822;23.564;2023-05-11T12:49:18;-11354.81;;;15.19;83.29
10145;BME280;5113;41.822;23.564;2023-05-11T12:52:28;-11355.78;;;15.23;86.83
10145;BME280;5113;41.822;23.564;2023-05-11T12:55:34;-11362.28;;;15.46;87.64
10145;BME280;5113;41.822;23.564;2023-05-11T12:58:41;-11366.94;;;15.63;84.81
10145;BME280;5113;41.822;23.564;2023-05-11T13:01:47;-11362.84;;;15.48;81.98
10145;BME280;5113;41.822;23.564;2023-05-11T13:04:54;-11347.63;;;14.93;85.66
10145;BME280;5113;41.822;23.564;2023-05-11T13:08:02;-11346.50;;;14.89;89.36
10145;BME280;5113;41.822;23.564;2023-05-11T13:11:18;-11356.94;;;15.27;86.03
10145;BME280;5113;41.822;23.564;2023-05-11T13:14:29;-11344.25;;;14.81;87.15
10145;BME280;5113;41.822;23.564;2023-05-11T13:17:36;-11363.69;;;15.51;87.38
10145;BME280;5113;41.822;23.564;2023-05-11T13:20:44;-11349.88;;;15.01;87.91
10145;BME280;5113;41.822;23.564;2023-05-11T13:23:50;-11339.75;;;14.65;90.14
10145;BME280;5113;41.822;23.564;2023-05-11T13:26:58;-11332.00;;;14.37;89.93
10145;BME280;5113;41.822;23.564;2023-05-11T13:30:05;-11352.69;;;15.11;86.91
10145;BME280;5113;41.822;23.564;2023-05-11T13:33:11;-11352.00;;;15.09;87.39
10145;BME280;5113;41.822;23.564;2023-05-11T13:36:20;-11362.28;;;15.46;89.87
10145;BME280;5113;41.822;23.564;2023-05-11T13:39:26;-11354.94;;;15.19;86.72
10145;BME280;5113;41.822;23.564;2023-05-11T13:42:32;-11342.13;;;14.73;90.24
10145;BME280;5113;41.822;23.564;2023-05-11T13:45:39;-11359.47;;;15.36;86.73
10145;BME280;5113;41.822;23.564;2023-05-11T13:48:45;-11375.81;;;15.95;84.05
10145;BME280;5113;41.822;23.564;2023-05-11T13:51:52;-11356.50;;;15.25;85.03
10145;BME280;5113;41.822;23.564;2023-05-11T13:54:59;-11370.16;;;15.74;85.17
10145;BME280;5113;41.822;23.564;2023-05-11T13:58:05;-11373.13;;;15.85;84.16
10145;BME280;5113;41.822;23.564;2023-05-11T14:01:11;-11372.16;;;15.81;83.38
10145;BME280;5113;41.822;23.564;2023-05-11T14:04:17;-11354.94;;;15.19;90.13
10145;BME280;5113;41.822;23.564;2023-05-11T14:07:25;-11354.38;;;15.17;87.64
10145;BME280;5113;41.822;23.564;2023-05-11T14:10:50;-11367.50;;;15.65;85.88
10145;BME280;5113;41.822;23.564;2023-05-11T14:13:56;-11367.78;;;15.66;86.71
10145;BME280;5113;41.822;23.564;2023-05-11T14:17:02;-11357.50;;;15.29;87.89
10145;BME280;5113;41.822;23.564;2023-05-11T14:20:09;-11370.31;;;15.75;86.33
10145;BME280;5113;41.822;23.564;2023-05-11T14:23:18;-11362.28;;;15.46;88.02
10145;BME280;5113;41.822;23.564;2023-05-11T14:26:24;-11362.97;;;15.48;86.19
10145;BME280;5113;41.822;23.564;2023-05-11T14:29:30;-11375.81;;;15.95;83.50
10145;BME280;5113;41.822;23.564;2023-05-11T14:32:36;-11354.66;;;15.18;87.20
10145;BME280;5113;41.822;23.564;2023-05-11T14:35:42;-11381.72;;;16.16;83.78
10145;BME280;5113;41.822;23.564;2023-05-11T14:38:50;-11372.84;;;15.84;85.50
10145;BME280;5113;41.822;23.564;2023-05-11T14:41:57;-11376.50;;;15.97;85.06
10145;BME280;5113;41.822;23.564;2023-05-11T14:45:04;-11376.78;;;15.98;86.61
10145;BME280;5113;41.822;23.564;2023-05-11T14:48:10;-11364.53;;;15.54;86.27
10145;BME280;5113;41.822;23.564;2023-05-11T14:51:16;-11365.38;;;15.57;88.39
10145;BME280;5113;41.822;23.564;2023-05-11T14:54:26;-11348.06;;;14.95;90.75
10145;BME280;5113;41.822;23.564;2023-05-11T14:57:33;-11370.59;;;15.76;90.43
10145;BME280;5113;41.822;23.564;2023-05-11T15:00:39;-11373.00;;;15.84;90.46
10145;BME280;5113;41.822;23.564;2023-05-11T15:03:45;-11365.94;;;15.59;92.87
10145;BME280;5113;41.822;23.564;2023-05-11T15:06:51;-11344.81;;;14.83;95.55
10145;BME280;5113;41.822;23.564;2023-05-11T15:09:59;-11342.84;;;14.76;95.01
10145;BME280;5113;41.822;23.564;2023-05-11T15:13:07;-11339.19;;;14.63;96.75
10145;BME280;5113;41.822;23.564;2023-05-11T15:16:14;-11341.16;;;14.70;95.74
10145;BME280;5113;41.822;23.564;2023-05-11T15:19:20;-11329.88;;;14.29;98.41
10145;BME280;5113;41.822;23.564;2023-05-11T15:22:26;-11339.47;;;14.64;98.70
10145;BME280;5113;41.822;23.564;2023-05-11T15:25:34;-11325.94;;;14.15;99.74
10145;BME280;5113;41.822;23.564;2023-05-11T15:28:40;-11336.38;;;14.52;100.00
10145;BME280;5113;41.822;23.564;2023-05-11T15:31:46;-11332.97;;;14.40;99.89
10145;BME280;5113;41.822;23.564;2023-05-11T15:34:52;-11334.94;;;14.47;100.00
10145;BME280;5113;41.822;23.564;2023-05-11T15:38:04;-11317.06;;;13.83;100.00
10145;BME280;5113;41.822;23.564;2023-05-11T15:41:12;-11325.38;;;14.13;100.00
10145;BME280;5113;41.822;23.564;2023-05-11T15:44:18;-11318.91;;;13.89;100.00
10145;BME280;5113;41.822;23.564;2023-05-11T15:47:24;-11311.72;;;13.64;100.00
10145;BME280;5113;41.822;23.564;2023-05-11T15:50:31;-11311.00;;;13.61;100.00
10145;BME280;5113;41.822;23.564;2023-05-11T15:53:37;-11308.63;;;13.52;100.00
10145;BME280;5113;41.822;23.564;2023-05-11T15:56:44;-11327.06;;;14.19;100.00
10145;BME280;5113;41.822;23.564;2023-05-11T15:59:50;-11323.25;;;14.05;100.00
10145;BME280;5113;41.822;23.564;2023-05-11T16:02:56;-11318.91;;;13.89;100.00
10145;BME280;5113;41.822;23.564;2023-05-11T16:06:03;-11312.13;;;13.65;100.00
10145;BME280;5113;41.822;23.564;2023-05-11T16:09:09;-11305.38;;;13.41;100.00
10145;BME280;5113;41.822;23.564;2023-05-11T16:12:17;-11303.41;;;13.34;100.00
10145;BME280;5113;41.822;23.564;2023-05-11T16:15:23;-11307.91;;;13.50;100.00
10145;BME280;5113;41.822;23.564;2023-05-11T16:18:30;-11292.56;;;12.95;100.00
10145;BME280;5113;41.822;23.564;2023-05-11T16:21:36;-11293.28;;;12.97;100.00